Harlow, North Dakota
Current Conditions -  °F | °C
As of 8:15 AM on Monday 22 Dec 2014 (Local Time) from K9D7 Reporting Station
Haze Haze  
Wind Chill: 30°   Ceiling: 900
Heat Index: 30°   Visibility: 5mi
Dew Point: 30°   Wind: 3mph
Humidity: 100%   Direction: 40°NE
Pressure: 29.53"   Gusts: NA
Location:  48.2518°N, 99.4309°W
Report Text: K9D7 221415Z AUTO 04003KT 5SM BR OVC009 M01/M01 A2953 RMK AO2
Loading
Personal Weather Stations






























Interactive Weather Map New forecast layout! Learn more

10-Day Weather Forecast

Advertisements
Track Severe Weather on mobile